Terminal Aerodrome Forecast
Issued by NWS

Home | Current Version | Previous Version | Text Only | Print | Product List | Glossary Off
Versions: 1 2 3 4 5 6 7 8 9 10 11 12 13 14 15 16 17 18 19

000
FTUS43 KGRB 141700
TAFRHI
TAF
KRHI 141733Z 1418/1518 35010G20KT P6SM SCT015 OVC025
     FM142000 34010KT P6SM BKN040
     FM150000 34005KT P6SM SCT040
      TEMPO 1508/1510 -SN
     FM151500 29006KT P6SM BKN040=

USA.gov is the U.S. government's official web portal to all federal, state and local government web resources and services.